Time;durP1;ratioP1;P1;durP2;ratioP2;P2;SDS_P1;SDS_P2;PMS_P1;PMS_P2;Temp;Humidity;BMP_temperature;BMP_pressure;BME280_temperature;BME280_humidity;BME280_pressure;Samples;Min_cycle;Max_cycle;Signal;HPM_P1;HPM_P2
2021/08/29 00:01:10;;;;;;;5.35;2.50;;;19.30;71.90;;;;;;5090972;28;20045;-73
2021/08/29 00:03:36;;;;;;;5.70;2.70;;;19.30;72.10;;;;;;5091818;28;20040;-73
2021/08/29 00:06:02;;;;;;;4.65;2.20;;;19.30;72.20;;;;;;5095378;28;20040;-73
2021/08/29 00:08:27;;;;;;;5.93;2.90;;;19.30;72.20;;;;;;5095512;28;20040;-73
2021/08/29 00:10:53;;;;;;;5.25;2.63;;;19.30;72.30;;;;;;5095433;28;20040;-73
2021/08/29 00:13:19;;;;;;;4.18;2.33;;;19.30;72.30;;;;;;5076989;28;20319;-73
2021/08/29 00:15:44;;;;;;;4.97;2.58;;;19.40;72.30;;;;;;5094866;28;20032;-73
2021/08/29 00:18:10;;;;;;;3.35;2.10;;;19.30;72.30;;;;;;5095753;28;20047;-73
2021/08/29 00:20:36;;;;;;;5.40;2.63;;;19.30;72.40;;;;;;5095896;28;20067;-73
2021/08/29 00:23:01;;;;;;;3.92;2.20;;;19.30;72.30;;;;;;5095362;28;20051;-74
2021/08/29 00:25:28;;;;;;;5.07;2.25;;;19.30;72.40;;;;;;5095345;28;20500;-72
2021/08/29 00:27:54;;;;;;;4.97;2.42;;;19.30;72.40;;;;;;5094939;28;20043;-73
2021/08/29 00:30:20;;;;;;;5.55;3.08;;;19.30;72.40;;;;;;5095113;28;20079;-72
2021/08/29 00:32:45;;;;;;;5.07;2.20;;;19.30;72.50;;;;;;5085491;28;20067;-73
2021/08/29 00:35:11;;;;;;;7.97;2.55;;;19.30;72.50;;;;;;5075205;28;20033;-72
2021/08/29 00:37:37;;;;;;;3.92;2.03;;;19.30;72.50;;;;;;5075005;28;20123;-73
2021/08/29 00:40:04;;;;;;;7.10;2.80;;;19.30;72.50;;;;;;5074630;28;20048;-73
2021/08/29 00:42:30;;;;;;;5.30;2.67;;;19.30;72.60;;;;;;5075454;28;20078;-73
2021/08/29 00:44:55;;;;;;;4.82;2.22;;;19.30;72.60;;;;;;5074860;28;20602;-73
2021/08/29 00:47:21;;;;;;;5.22;2.53;;;19.30;72.60;;;;;;5075653;28;20162;-73
2021/08/29 00:49:47;;;;;;;3.90;2.20;;;19.30;72.60;;;;;;5078109;28;20383;-73
2021/08/29 00:52:13;;;;;;;8.00;2.38;;;19.30;72.70;;;;;;5078537;28;20117;-73
2021/08/29 00:54:39;;;;;;;4.80;2.47;;;19.30;72.70;;;;;;5078050;28;20040;-73
2021/08/29 00:57:09;;;;;;;4.75;2.33;;;19.30;72.80;;;;;;5078331;28;20238;-73
2021/08/29 00:59:38;;;;;;;5.68;2.65;;;19.30;72.80;;;;;;5078914;28;20080;-73
2021/08/29 01:02:15;;;;;;;5.95;1.80;;;19.30;72.90;;;;;;5091019;28;20579;-73
2021/08/29 01:04:55;;;;;;;5.28;2.22;;;19.30;72.80;;;;;;5080758;28;20048;-73
2021/08/29 01:07:34;;;;;;;5.03;2.35;;;19.30;72.80;;;;;;5099258;28;20040;-73
2021/08/29 01:10:07;;;;;;;4.63;2.22;;;19.30;72.80;;;;;;5098954;28;20058;-73
2021/08/29 01:12:32;;;;;;;5.10;2.28;;;19.30;73.00;;;;;;5098831;28;20040;-72
2021/08/29 01:15:03;;;;;;;4.10;1.95;;;19.30;73.00;;;;;;5098525;28;20055;-73
2021/08/29 01:17:32;;;;;;;5.57;2.40;;;19.30;73.00;;;;;;5098170;28;20127;-72
2021/08/29 01:20:35;;;;;;;4.97;1.83;;;19.30;73.00;;;;;;5098409;28;20040;-73
2021/08/29 01:23:02;;;;;;;6.07;2.38;;;19.30;72.70;;;;;;5098331;28;20040;-73
2021/08/29 01:25:33;;;;;;;6.93;2.58;;;19.30;73.00;;;;;;5098458;28;20442;-73
2021/08/29 01:28:10;;;;;;;4.88;2.30;;;19.30;73.00;;;;;;5098255;28;20108;-73
2021/08/29 01:30:36;;;;;;;4.90;2.30;;;19.30;72.80;;;;;;5096447;28;20036;-73
2021/08/29 01:33:04;;;;;;;4.45;1.75;;;19.30;73.10;;;;;;5077710;28;20044;-73
2021/08/29 01:35:29;;;;;;;5.97;2.55;;;19.30;73.20;;;;;;5078422;28;20058;-72
2021/08/29 01:37:56;;;;;;;5.40;2.20;;;19.30;73.20;;;;;;5078803;28;20447;-72
2021/08/29 01:40:22;;;;;;;5.72;2.28;;;19.30;73.20;;;;;;5077749;28;20090;-73
2021/08/29 01:42:48;;;;;;;7.60;2.40;;;19.30;73.30;;;;;;5077836;28;20161;-73
2021/08/29 01:45:15;;;;;;;5.07;2.20;;;19.30;73.30;;;;;;5078039;28;20048;-73
2021/08/29 01:47:41;;;;;;;8.07;2.30;;;19.30;73.30;;;;;;5077787;28;20056;-73
2021/08/29 01:50:07;;;;;;;6.60;2.70;;;19.30;73.30;;;;;;5077286;28;20044;-73
2021/08/29 01:52:33;;;;;;;7.50;2.22;;;19.30;73.40;;;;;;5077346;28;20076;-73
2021/08/29 01:54:59;;;;;;;5.00;2.28;;;19.30;73.40;;;;;;5077383;28;20148;-74
2021/08/29 01:57:25;;;;;;;6.63;2.35;;;19.30;73.50;;;;;;5077597;28;20072;-73
2021/08/29 01:59:50;;;;;;;3.97;1.80;;;19.30;73.50;;;;;;5076535;28;20051;-73
2021/08/29 02:02:17;;;;;;;4.65;1.85;;;19.30;73.50;;;;;;5085279;28;20063;-73
2021/08/29 02:04:44;;;;;;;5.57;2.22;;;19.30;73.50;;;;;;5080920;28;20050;-73
2021/08/29 02:07:13;;;;;;;5.53;2.08;;;19.30;73.40;;;;;;5097607;28;20039;-72
2021/08/29 02:09:43;;;;;;;6.03;2.35;;;19.30;73.40;;;;;;5097416;28;20381;-73
2021/08/29 02:12:10;;;;;;;6.63;2.25;;;19.30;73.40;;;;;;5096824;28;20048;-73
2021/08/29 02:14:44;;;;;;;6.97;2.00;;;19.30;73.40;;;;;;5097883;28;20391;-72
2021/08/29 02:17:14;;;;;;;5.82;2.33;;;19.30;73.40;;;;;;5097483;28;20050;-72
2021/08/29 02:19:41;;;;;;;5.95;2.50;;;19.30;73.40;;;;;;5079486;28;20083;-73
2021/08/29 02:22:07;;;;;;;6.95;2.63;;;19.30;73.40;;;;;;5097299;28;20040;-73
2021/08/29 02:24:33;;;;;;;5.72;2.58;;;19.30;73.50;;;;;;5097266;28;20097;-72
2021/08/29 02:26:59;;;;;;;4.32;1.98;;;19.20;73.40;;;;;;5097146;28;20081;-72
2021/08/29 02:29:26;;;;;;;7.18;2.78;;;19.30;73.50;;;;;;5097518;28;20418;-72
2021/08/29 02:31:52;;;;;;;7.10;2.40;;;19.20;73.40;;;;;;5095301;28;20122;-72
2021/08/29 02:34:18;;;;;;;4.03;2.08;;;19.20;73.50;;;;;;5096970;28;20205;-72
2021/08/29 02:36:45;;;;;;;7.85;2.85;;;19.20;73.50;;;;;;5096977;28;20454;-72
2021/08/29 02:39:14;;;;;;;4.85;2.42;;;19.30;73.60;;;;;;5097011;28;20040;-72
2021/08/29 02:41:42;;;;;;;5.68;1.88;;;19.20;73.50;;;;;;5096692;28;20141;-73
2021/08/29 02:44:08;;;;;;;6.55;2.05;;;19.20;73.50;;;;;;5096733;28;20123;-72
2021/08/29 02:46:33;;;;;;;5.80;2.08;;;19.20;73.50;;;;;;5096820;28;20185;-73
2021/08/29 02:49:00;;;;;;;6.57;2.58;;;19.20;73.60;;;;;;5097273;28;20428;-73
2021/08/29 02:51:26;;;;;;;6.93;2.75;;;19.20;73.60;;;;;;5096659;28;20032;-73
2021/08/29 02:53:51;;;;;;;5.85;2.50;;;19.20;73.60;;;;;;5096252;28;20331;-73
2021/08/29 02:56:20;;;;;;;4.40;2.15;;;19.20;73.70;;;;;;5096912;28;20039;-73
2021/08/29 02:58:47;;;;;;;5.40;2.35;;;19.20;73.60;;;;;;5096172;28;20086;-73
2021/08/29 03:01:13;;;;;;;7.28;2.30;;;19.30;73.70;;;;;;5085001;28;20052;-73
2021/08/29 03:03:39;;;;;;;4.97;2.60;;;19.20;73.60;;;;;;5076236;28;20127;-72
2021/08/29 03:06:05;;;;;;;7.18;2.72;;;19.20;73.60;;;;;;5076214;28;20036;-72
2021/08/29 03:08:31;;;;;;;8.57;2.70;;;19.30;73.70;;;;;;5075823;28;20036;-72
2021/08/29 03:10:57;;;;;;;5.15;2.08;;;19.20;73.80;;;;;;5075329;28;20043;-72
2021/08/29 03:13:25;;;;;;;5.85;2.67;;;19.20;73.80;;;;;;5075943;28;20041;-72
2021/08/29 03:15:50;;;;;;;6.55;2.00;;;19.20;73.80;;;;;;5075918;28;20123;-72
2021/08/29 03:18:18;;;;;;;9.98;2.70;;;19.20;73.80;;;;;;5075817;28;20075;-72
2021/08/29 03:20:45;;;;;;;6.57;2.38;;;19.20;73.80;;;;;;5075818;28;20479;-72
2021/08/29 03:23:11;;;;;;;5.18;2.10;;;19.20;73.80;;;;;;5075390;28;20123;-73
2021/08/29 03:25:37;;;;;;;8.05;2.55;;;19.20;73.80;;;;;;5089764;28;20118;-72
2021/08/29 03:28:03;;;;;;;9.40;3.03;;;19.20;73.80;;;;;;5095948;28;20051;-72
2021/08/29 03:30:29;;;;;;;7.38;2.00;;;19.20;73.80;;;;;;5095955;28;20051;-72
2021/08/29 03:32:54;;;;;;;6.20;2.50;;;19.20;73.80;;;;;;5095972;28;20127;-73
2021/08/29 03:35:21;;;;;;;7.47;2.45;;;19.20;73.80;;;;;;5095897;28;20050;-73
2021/08/29 03:37:48;;;;;;;6.03;1.95;;;19.20;73.80;;;;;;5095801;28;20423;-73
2021/08/29 03:40:14;;;;;;;6.55;2.22;;;19.20;73.80;;;;;;5078416;28;20354;-73
2021/08/29 03:42:42;;;;;;;9.05;2.45;;;19.20;73.80;;;;;;5095971;28;20050;-72
2021/08/29 03:45:08;;;;;;;6.55;2.22;;;19.20;73.80;;;;;;5095581;28;20431;-73
2021/08/29 03:47:35;;;;;;;5.07;1.65;;;19.20;73.80;;;;;;5095880;28;20075;-72
2021/08/29 03:50:03;;;;;;;9.55;2.65;;;19.20;73.80;;;;;;5095759;28;20043;-73
2021/08/29 03:52:29;;;;;;;6.63;2.50;;;19.20;73.80;;;;;;5095359;28;20040;-72
2021/08/29 03:54:55;;;;;;;5.47;2.03;;;19.20;73.80;;;;;;5086821;28;20044;-72
2021/08/29 03:57:22;;;;;;;8.65;2.47;;;19.20;73.80;;;;;;5075281;28;20094;-72
2021/08/29 03:59:48;;;;;;;5.30;2.20;;;19.20;73.80;;;;;;5075644;28;20117;-73
2021/08/29 04:02:14;;;;;;;7.40;2.38;;;19.20;73.80;;;;;;5083625;28;20453;-73
2021/08/29 04:04:40;;;;;;;6.20;2.28;;;19.20;73.80;;;;;;5096121;28;20043;-73
2021/08/29 04:07:08;;;;;;;6.57;2.30;;;19.20;73.80;;;;;;5095330;28;20040;-72
2021/08/29 04:09:34;;;;;;;4.68;1.85;;;19.20;73.80;;;;;;5095097;28;20100;-73
2021/08/29 04:12:00;;;;;;;7.40;2.05;;;19.30;73.90;;;;;;5095518;28;20056;-72
2021/08/29 04:14:27;;;;;;;5.78;2.15;;;19.20;73.80;;;;;;5095102;28;20113;-72
2021/08/29 04:16:58;;;;;;;5.03;2.42;;;19.20;73.80;;;;;;5077539;28;20040;-73
2021/08/29 04:19:25;;;;;;;8.55;2.65;;;19.20;73.80;;;;;;5095007;28;20040;-72
2021/08/29 04:21:55;;;;;;;5.80;1.90;;;19.20;73.80;;;;;;5095388;28;20051;-73
2021/08/29 04:24:21;;;;;;;5.78;1.73;;;19.20;73.80;;;;;;5099435;28;20036;-73
2021/08/29 04:26:48;;;;;;;5.15;2.13;;;19.20;73.80;;;;;;5098768;28;20462;-73
2021/08/29 04:29:14;;;;;;;6.78;2.40;;;19.20;73.80;;;;;;5099389;28;20428;-73
2021/08/29 04:31:44;;;;;;;7.80;2.13;;;19.20;73.80;;;;;;5096023;28;20035;-73
2021/08/29 04:34:10;;;;;;;6.10;2.00;;;19.20;73.80;;;;;;5079161;28;20124;-73
2021/08/29 04:36:37;;;;;;;7.30;2.53;;;19.20;73.80;;;;;;5078766;28;20202;-73
2021/08/29 04:39:06;;;;;;;6.68;2.35;;;19.20;73.80;;;;;;5079102;28;20115;-73
2021/08/29 04:41:32;;;;;;;4.90;2.20;;;19.20;73.90;;;;;;5079462;28;20048;-73
2021/08/29 04:43:58;;;;;;;7.25;2.42;;;19.20;73.90;;;;;;5078836;28;20336;-73
2021/08/29 04:46:24;;;;;;;6.90;2.40;;;19.20;73.90;;;;;;5079494;28;20491;-73
2021/08/29 04:48:50;;;;;;;5.55;1.80;;;19.20;73.90;;;;;;5078714;28;20128;-73
2021/08/29 04:51:15;;;;;;;5.85;2.08;;;19.20;73.90;;;;;;5078465;28;20036;-72
2021/08/29 04:53:41;;;;;;;5.22;2.03;;;19.30;74.50;;;;;;5078335;28;20052;-72
2021/08/29 04:56:07;;;;;;;6.57;2.10;;;19.30;73.90;;;;;;5078792;28;20032;-73
2021/08/29 04:58:33;;;;;;;5.82;1.65;;;19.30;73.80;;;;;;5089164;28;20053;-73
2021/08/29 05:00:58;;;;;;;7.35;2.40;;;19.30;73.80;;;;;;5079067;28;20401;-73
2021/08/29 05:03:24;;;;;;;7.43;2.00;;;19.30;73.70;;;;;;5078836;28;20355;-71
2021/08/29 05:05:50;;;;;;;6.15;2.10;;;19.30;73.60;;;;;;5078226;28;20359;-72
2021/08/29 05:08:15;;;;;;;5.10;1.88;;;19.30;73.70;;;;;;5078228;28;20044;-73
2021/08/29 05:10:42;;;;;;;6.82;2.22;;;19.30;73.70;;;;;;5078216;28;20347;-73
2021/08/29 05:13:07;;;;;;;16.38;3.42;;;19.40;74.10;;;;;;5078398;28;20473;-76
2021/08/29 05:15:33;;;;;;;10.73;2.92;;;19.40;72.50;;;;;;5077531;28;20156;-73
2021/08/29 05:17:59;;;;;;;10.43;3.10;;;19.40;72.40;;;;;;5078239;28;20052;-72
2021/08/29 05:20:25;;;;;;;11.35;2.78;;;19.40;71.90;;;;;;5077951;28;20053;-73
2021/08/29 05:22:50;;;;;;;13.07;3.00;;;19.30;71.80;;;;;;5078013;28;20109;-73
2021/08/29 05:25:16;;;;;;;16.63;3.17;;;19.30;71.80;;;;;;5078149;28;20123;-72
2021/08/29 05:27:42;;;;;;;14.27;3.30;;;19.30;71.80;;;;;;5078087;28;20040;-72
2021/08/29 05:30:08;;;;;;;13.48;3.08;;;19.20;72.10;;;;;;5082009;28;20039;-71
2021/08/29 05:32:34;;;;;;;9.02;3.50;;;19.20;72.80;;;;;;5098056;28;20101;-77
2021/08/29 05:35:00;;;;;;;16.13;3.92;;;19.20;73.80;;;;;;5097190;28;20381;-75
2021/08/29 05:37:25;;;;;;;13.57;3.22;;;19.30;73.70;;;;;;5098031;28;20122;-75
2021/08/29 05:39:51;;;;;;;12.52;2.95;;;19.30;74.10;;;;;;5098687;28;20438;-73
2021/08/29 05:42:17;;;;;;;11.98;2.90;;;19.30;73.40;;;;;;5098170;28;20044;-74
2021/08/29 05:44:42;;;;;;;13.70;3.28;;;19.30;73.50;;;;;;5094123;28;20062;-74
2021/08/29 05:47:08;;;;;;;14.07;3.15;;;19.30;73.50;;;;;;5097348;28;20043;-72
2021/08/29 05:49:34;;;;;;;12.48;3.05;;;19.30;73.70;;;;;;5097741;28;20040;-72
2021/08/29 05:52:00;;;;;;;14.40;3.13;;;19.40;73.90;;;;;;5086412;28;20044;-75
2021/08/29 05:54:25;;;;;;;11.10;2.55;;;19.30;74.00;;;;;;5077341;28;20119;-74
2021/08/29 05:56:51;;;;;;;8.15;2.30;;;19.30;74.10;;;;;;5077261;28;20062;-71
2021/08/29 05:59:17;;;;;;;11.23;2.97;;;19.30;74.20;;;;;;5077188;28;20044;-73
2021/08/29 06:01:42;;;;;;;11.52;2.47;;;19.30;74.30;;;;;;5078014;28;20053;-73
2021/08/29 06:04:08;;;;;;;8.60;3.00;;;19.30;74.40;;;;;;5077681;28;20055;-72
2021/08/29 06:06:34;;;;;;;11.32;3.50;;;19.20;74.60;;;;;;5077764;28;20044;-73
2021/08/29 06:09:00;;;;;;;10.20;2.60;;;19.20;74.70;;;;;;5077192;28;20049;-73
2021/08/29 06:11:26;;;;;;;13.23;2.83;;;19.10;74.80;;;;;;5077037;28;20047;-72
2021/08/29 06:13:52;;;;;;;12.30;2.50;;;19.10;74.70;;;;;;5077052;28;20036;-72
2021/08/29 06:16:18;;;;;;;11.77;2.45;;;19.20;74.70;;;;;;5077190;28;20087;-73
2021/08/29 06:18:43;;;;;;;14.32;2.75;;;19.10;74.60;;;;;;5076867;28;20045;-72
2021/08/29 06:21:09;;;;;;;12.45;3.13;;;19.20;74.80;;;;;;5076766;28;20044;-73
2021/08/29 06:23:35;;;;;;;8.82;2.50;;;19.20;74.80;;;;;;5076901;28;20493;-73
2021/08/29 06:26:01;;;;;;;9.45;2.03;;;19.20;74.80;;;;;;5077203;28;20040;-73
2021/08/29 06:28:27;;;;;;;10.55;2.75;;;19.20;74.70;;;;;;5076836;28;20036;-75
2021/08/29 06:30:52;;;;;;;10.95;2.70;;;19.20;74.70;;;;;;5088572;28;20119;-73
2021/08/29 06:33:18;;;;;;;8.43;2.55;;;19.30;74.90;;;;;;5096641;28;20036;-72
2021/08/29 06:35:43;;;;;;;10.23;2.33;;;19.30;74.90;;;;;;5096223;28;20059;-72
2021/08/29 06:38:09;;;;;;;7.05;1.85;;;19.30;75.00;;;;;;5083945;28;20039;-72
2021/08/29 06:40:35;;;;;;;10.88;2.85;;;19.40;75.00;;;;;;5097062;28;20336;-71
2021/08/29 06:43:01;;;;;;;11.75;3.17;;;19.40;75.00;;;;;;5086209;28;20044;-71
2021/08/29 06:45:26;;;;;;;12.00;2.53;;;19.40;75.00;;;;;;5076131;28;20428;-78
2021/08/29 06:47:52;;;;;;;7.97;2.00;;;19.40;75.20;;;;;;5076036;28;20105;-81
2021/08/29 06:50:18;;;;;;;9.88;2.63;;;19.50;75.20;;;;;;5059127;28;20119;-80
2021/08/29 06:52:46;;;;;;;12.80;3.30;;;19.50;75.20;;;;;;5059232;28;20063;-80
2021/08/29 06:55:12;;;;;;;14.93;3.33;;;19.50;75.00;;;;;;5068559;28;20036;-78
2021/08/29 06:57:38;;;;;;;12.13;2.75;;;19.60;75.00;;;;;;5096236;28;20428;-76
2021/08/29 07:00:04;;;;;;;13.43;2.58;;;19.60;74.50;;;;;;5095976;28;20040;-76
2021/08/29 07:02:30;;;;;;;16.50;3.78;;;19.60;73.90;;;;;;5096199;28;20494;-75
2021/08/29 07:04:56;;;;;;;14.10;3.30;;;19.50;74.20;;;;;;5096714;28;20040;-77
2021/08/29 07:07:21;;;;;;;16.08;3.30;;;19.50;74.20;;;;;;5096661;28;20516;-77
2021/08/29 07:09:47;;;;;;;13.75;3.45;;;19.40;74.10;;;;;;5087269;28;20040;-79
2021/08/29 07:12:14;;;;;;;13.43;3.70;;;19.40;74.60;;;;;;5091814;28;20409;-81
2021/08/29 07:14:40;;;;;;;11.88;3.70;;;19.30;75.20;;;;;;5093717;28;20056;-76
2021/08/29 07:17:06;;;;;;;13.38;3.67;;;19.30;75.50;;;;;;5075770;28;20120;-78
2021/08/29 07:19:32;;;;;;;15.20;3.90;;;19.20;75.50;;;;;;5075790;28;20051;-76
2021/08/29 07:21:58;;;;;;;16.60;3.67;;;19.20;75.90;;;;;;5075923;28;20040;-75
2021/08/29 07:24:26;;;;;;;15.60;3.47;;;19.20;76.10;;;;;;5076764;28;20044;-77
2021/08/29 07:26:52;;;;;;;19.25;3.58;;;19.20;76.80;;;;;;5041476;28;20052;-78
2021/08/29 07:29:18;;;;;;;16.98;3.65;;;19.20;77.00;;;;;;5075910;28;20041;-76
2021/08/29 07:31:43;;;;;;;17.90;4.22;;;19.30;76.90;;;;;;5070383;28;20047;-78
2021/08/29 07:34:09;;;;;;;13.65;3.50;;;19.30;77.00;;;;;;5075260;28;20073;-77
2021/08/29 07:36:35;;;;;;;14.43;4.05;;;19.30;77.00;;;;;;5057943;28;20109;-74
2021/08/29 07:39:00;;;;;;;18.10;3.60;;;19.30;77.10;;;;;;5075767;28;20036;-77
2021/08/29 07:41:26;;;;;;;16.98;4.35;;;19.40;77.30;;;;;;5078090;28;20463;-77
2021/08/29 07:43:52;;;;;;;17.80;3.10;;;19.40;77.40;;;;;;5085131;28;20120;-77
2021/08/29 07:46:17;;;;;;;17.17;4.00;;;19.40;77.60;;;;;;5086952;28;20130;-77
2021/08/29 07:48:44;;;;;;;13.88;3.70;;;19.40;77.80;;;;;;5078552;28;20044;-69
2021/08/29 07:51:09;;;;;;;14.55;3.70;;;19.50;77.90;;;;;;5075297;28;20052;-70
2021/08/29 07:53:35;;;;;;;24.50;3.80;;;19.40;77.70;;;;;;5075449;28;20044;-70
2021/08/29 07:56:01;;;;;;;15.40;3.15;;;19.50;77.90;;;;;;5075028;28;20044;-70
2021/08/29 07:58:26;;;;;;;13.80;3.17;;;19.50;77.70;;;;;;5074066;28;20077;-70
2021/08/29 08:00:52;;;;;;;14.20;3.25;;;19.40;77.60;;;;;;5074618;28;20048;-70
2021/08/29 08:03:18;;;;;;;12.13;3.22;;;19.40;77.50;;;;;;5075077;28;20076;-69
2021/08/29 08:05:44;;;;;;;20.95;3.78;;;19.40;77.80;;;;;;5083718;28;20451;-70
2021/08/29 08:08:09;;;;;;;15.48;3.78;;;19.50;78.20;;;;;;5082282;28;20347;-70
2021/08/29 08:10:35;;;;;;;13.82;3.30;;;19.50;78.20;;;;;;5093328;28;20124;-70
2021/08/29 08:13:01;;;;;;;20.73;3.55;;;19.50;77.90;;;;;;5090065;28;20072;-70
2021/08/29 08:15:27;;;;;;;17.92;3.40;;;19.50;78.00;;;;;;5074911;28;20049;-71
2021/08/29 08:17:52;;;;;;;16.83;3.80;;;19.50;78.20;;;;;;5075356;28;20048;-71
2021/08/29 08:20:19;;;;;;;14.68;3.50;;;19.50;78.40;;;;;;5074949;28;20355;-70
2021/08/29 08:22:47;;;;;;;25.40;4.10;;;19.50;78.30;;;;;;5074439;28;20078;-72
2021/08/29 08:25:13;;;;;;;15.25;3.00;;;19.50;78.50;;;;;;5079722;28;20046;-71
2021/08/29 08:27:39;;;;;;;20.90;3.22;;;19.50;78.30;;;;;;5094993;28;20121;-71
2021/08/29 08:30:06;;;;;;;25.40;3.92;;;19.50;78.30;;;;;;5095798;28;20048;-71
2021/08/29 08:32:32;;;;;;;21.75;4.30;;;19.50;78.40;;;;;;5095166;28;20040;-71
2021/08/29 08:34:57;;;;;;;16.55;4.07;;;19.60;78.40;;;;;;5095614;28;20047;-71
2021/08/29 08:37:23;;;;;;;15.88;3.15;;;19.60;78.30;;;;;;5094847;28;20044;-72
2021/08/29 08:39:49;;;;;;;15.70;3.10;;;19.50;78.10;;;;;;5095088;28;20036;-71
2021/08/29 08:42:15;;;;;;;23.88;3.58;;;19.60;78.10;;;;;;5077453;28;20055;-72
2021/08/29 08:44:43;;;;;;;15.88;2.90;;;19.60;78.00;;;;;;5076909;28;20102;-71
2021/08/29 08:47:11;;;;;;;18.27;3.83;;;19.60;77.90;;;;;;5094867;28;20332;-71
2021/08/29 08:49:39;;;;;;;14.20;3.13;;;19.60;77.90;;;;;;5094943;28;20400;-72
2021/08/29 08:52:14;;;;;;;19.83;3.13;;;19.60;77.80;;;;;;5095207;28;20105;-72
2021/08/29 08:54:40;;;;;;;12.57;3.40;;;19.60;77.70;;;;;;5095056;28;20062;-72
2021/08/29 08:57:07;;;;;;;27.50;4.40;;;19.60;77.60;;;;;;5077092;28;20036;-72
2021/08/29 08:59:33;;;;;;;14.48;2.97;;;19.60;77.60;;;;;;5095001;28;20440;-72
2021/08/29 09:01:59;;;;;;;15.15;4.28;;;19.60;77.60;;;;;;5087660;28;20074;-71
2021/08/29 09:04:25;;;;;;;13.13;3.72;;;19.60;77.50;;;;;;5074823;28;20157;-72
2021/08/29 09:06:51;;;;;;;15.45;3.60;;;19.60;77.40;;;;;;5074542;28;20390;-72
2021/08/29 09:09:17;;;;;;;12.73;3.17;;;19.60;77.40;;;;;;5075273;28;20040;-71
2021/08/29 09:11:43;;;;;;;16.63;3.25;;;19.60;77.30;;;;;;5078096;28;20067;-71
2021/08/29 09:14:09;;;;;;;12.82;3.22;;;19.60;77.30;;;;;;5077255;28;20029;-70
2021/08/29 09:16:35;;;;;;;12.10;2.88;;;19.70;77.20;;;;;;5077888;28;20353;-71
2021/08/29 09:19:03;;;;;;;15.20;3.58;;;19.70;77.20;;;;;;5077847;28;20032;-71
2021/08/29 09:21:35;;;;;;;17.17;4.30;;;19.60;77.10;;;;;;5078214;28;20072;-72
2021/08/29 09:24:06;;;;;;;14.07;3.50;;;19.60;77.10;;;;;;5077748;28;20053;-74
2021/08/29 09:26:32;;;;;;;20.23;4.40;;;19.60;77.20;;;;;;5078249;28;20040;-75
2021/08/29 09:28:59;;;;;;;13.02;3.53;;;19.60;77.30;;;;;;5077837;28;20051;-73
2021/08/29 09:31:45;;;;;;;22.98;4.38;;;19.60;77.40;;;;;;5077991;28;20040;-74
2021/08/29 09:34:11;;;;;;;54.00;34.70;;;19.60;77.50;;;;;;5077433;28;20105;-72
2021/08/29 09:36:40;;;;;;;20.65;7.63;;;19.60;78.40;;;;;;5060000;28;20040;-72
2021/08/29 09:39:14;;;;;;;17.25;7.57;;;19.70;77.90;;;;;;5060360;28;20123;-74
2021/08/29 09:41:41;;;;;;;10.10;3.78;;;19.70;78.00;;;;;;5078069;28;20123;-70
2021/08/29 09:44:13;;;;;;;15.35;5.18;;;19.70;77.90;;;;;;5077785;28;20040;-72
2021/08/29 09:47:00;;;;;;;19.13;5.32;;;19.70;78.60;;;;;;5077705;28;20048;-79
2021/08/29 09:49:28;;;;;;;11.20;4.43;;;19.70;79.00;;;;;;5060786;28;20055;-74
2021/08/29 09:51:57;;;;;;;14.30;4.88;;;19.70;78.80;;;;;;5077190;28;20056;-73
2021/08/29 09:54:32;;;;;;;11.27;4.22;;;19.70;78.50;;;;;;5077391;28;20049;-74
2021/08/29 09:56:59;;;;;;;12.88;4.07;;;19.70;78.40;;;;;;5060514;28;20048;-74
2021/08/29 09:59:57;;;;;;;15.55;5.00;;;19.70;78.30;;;;;;5059758;28;20044;-74
2021/08/29 10:02:24;;;;;;;16.75;4.80;;;19.70;77.80;;;;;;5031996;28;20041;-75
2021/08/29 10:05:10;;;;;;;13.63;3.88;;;19.70;78.10;;;;;;5059766;28;20063;-75
2021/08/29 10:07:35;;;;;;;12.15;4.32;;;19.70;77.80;;;;;;5059492;28;20474;-75
2021/08/29 10:10:25;;;;;;;10.60;3.53;;;19.70;78.00;;;;;;5059722;28;20044;-73
2021/08/29 10:12:52;;;;;;;12.40;3.65;;;19.70;77.90;;;;;;5077227;28;20482;-75
2021/08/29 10:15:19;;;;;;;9.23;3.55;;;19.70;78.20;;;;;;5059711;28;20040;-74
2021/08/29 10:17:46;;;;;;;11.30;3.70;;;19.70;78.30;;;;;;5059888;28;20087;-75
2021/08/29 10:20:20;;;;;;;11.40;3.53;;;19.70;78.20;;;;;;5058760;28;20048;-75
2021/08/29 10:22:50;;;;;;;8.27;3.30;;;19.70;77.70;;;;;;5059406;28;20059;-75
2021/08/29 10:25:17;;;;;;;9.18;2.97;;;19.70;78.00;;;;;;5059381;28;20478;-74
2021/08/29 10:27:56;;;;;;;10.85;3.67;;;19.70;77.80;;;;;;5076697;28;20064;-77
2021/08/29 10:30:26;;;;;;;6.38;3.30;;;19.70;77.50;;;;;;5058353;28;20352;-74
2021/08/29 10:32:53;;;;;;;6.40;3.13;;;19.70;77.80;;;;;;5077409;28;20109;-77
2021/08/29 10:35:20;;;;;;;8.07;3.40;;;19.70;77.90;;;;;;5076405;28;20519;-75
2021/08/29 10:37:47;;;;;;;10.23;2.80;;;19.70;77.80;;;;;;5076502;28;20040;-71
2021/08/29 10:40:14;;;;;;;7.82;3.47;;;19.70;77.70;;;;;;5059072;28;20040;-72
2021/08/29 10:42:42;;;;;;;8.48;3.38;;;19.70;77.60;;;;;;5061488;28;20041;-71
2021/08/29 10:45:10;;;;;;;8.68;3.65;;;19.70;77.80;;;;;;5077217;28;20044;-71
2021/08/29 10:47:38;;;;;;;7.05;2.88;;;19.70;77.80;;;;;;5076296;28;20394;-74
2021/08/29 10:50:06;;;;;;;11.02;3.50;;;19.70;77.90;;;;;;5076686;28;20104;-71
2021/08/29 10:52:34;;;;;;;8.43;3.47;;;19.70;78.00;;;;;;5058582;28;20432;-74
2021/08/29 10:55:07;;;;;;;12.88;3.33;;;19.70;78.10;;;;;;5079856;28;20040;-71
2021/08/29 10:57:34;;;;;;;10.67;3.07;;;19.70;78.10;;;;;;5090939;28;20050;-71
2021/08/29 11:00:13;;;;;;;9.13;3.05;;;19.70;78.00;;;;;;5094679;28;20100;-70
2021/08/29 11:02:43;;;;;;;7.68;3.28;;;19.80;78.20;;;;;;5076090;28;20052;-70
2021/08/29 11:05:29;;;;;;;10.20;2.72;;;19.70;78.30;;;;;;5058951;28;20052;-70
2021/08/29 11:07:58;;;;;;;9.50;3.85;;;19.70;78.50;;;;;;5073797;28;20475;-70
2021/08/29 11:10:54;;;;;;;9.20;3.00;;;19.70;78.50;;;;;;5076380;28;20044;-70
2021/08/29 11:13:31;;;;;;;9.45;2.97;;;19.70;78.70;;;;;;5074129;28;20087;-70
2021/08/29 11:16:18;;;;;;;11.55;3.13;;;19.70;79.30;;;;;;5087960;28;20043;-68
2021/08/29 11:18:59;;;;;;;6.90;3.10;;;19.70;78.80;;;;;;5058053;28;20442;-70
2021/08/29 11:21:45;;;;;;;7.78;3.00;;;19.70;78.90;;;;;;5075995;28;20124;-70
2021/08/29 11:24:11;;;;;;;8.25;2.83;;;19.70;78.80;;;;;;5074485;28;20076;-69
2021/08/29 11:26:42;;;;;;;7.18;2.67;;;19.80;78.90;;;;;;5075617;28;20067;-71
2021/08/29 11:29:39;;;;;;;8.80;2.40;;;19.80;79.00;;;;;;5076511;28;20048;-70
2021/08/29 11:32:11;;;;;;;8.98;2.83;;;19.80;79.00;;;;;;5074794;28;20470;-70
2021/08/29 11:34:37;;;;;;;11.63;3.08;;;19.70;79.00;;;;;;5072277;28;20037;-70
2021/08/29 11:37:35;;;;;;;8.18;2.38;;;19.70;79.10;;;;;;5075590;28;20524;-72
2021/08/29 11:40:05;;;;;;;5.97;2.75;;;19.70;79.20;;;;;;5041950;28;20062;-70
2021/08/29 11:42:31;;;;;;;6.32;2.35;;;19.70;79.20;;;;;;5095782;28;20040;-70
2021/08/29 11:44:58;;;;;;;6.05;2.50;;;19.80;79.20;;;;;;5096441;28;20040;-70
2021/08/29 11:47:35;;;;;;;5.35;2.53;;;19.70;79.10;;;;;;5095628;28;20458;-70
2021/08/29 11:50:04;;;;;;;10.60;3.55;;;19.70;79.20;;;;;;5083398;28;20097;-69
2021/08/29 11:52:31;;;;;;;10.40;3.72;;;19.70;79.40;;;;;;5075882;28;20072;-68
2021/08/29 11:55:07;;;;;;;15.63;3.33;;;19.70;79.80;;;;;;5075652;28;20044;-69
2021/08/29 11:57:53;;;;;;;12.13;3.20;;;19.80;79.00;;;;;;5075500;28;20041;-71
2021/08/29 12:00:23;;;;;;;24.65;3.53;;;19.80;79.10;;;;;;5075194;28;20052;-74
2021/08/29 12:02:53;;;;;;;14.77;3.20;;;19.80;79.10;;;;;;5075016;28;20037;-72
2021/08/29 12:05:19;;;;;;;9.73;2.58;;;19.80;78.60;;;;;;5057540;28;20125;-71
2021/08/29 12:08:09;;;;;;;15.68;2.78;;;19.80;78.40;;;;;;5075276;28;20052;-72
2021/08/29 12:10:36;;;;;;;11.00;2.80;;;19.80;78.40;;;;;;5081552;28;20044;-73
2021/08/29 12:13:03;;;;;;;12.57;3.13;;;19.80;78.50;;;;;;5094940;28;20044;-68
2021/08/29 12:15:29;;;;;;;10.13;3.25;;;19.80;78.60;;;;;;5095150;28;20040;-73
2021/08/29 12:18:03;;;;;;;9.82;3.00;;;19.80;78.40;;;;;;5094466;28;20101;-70
2021/08/29 12:20:30;;;;;;;17.02;3.05;;;19.80;78.30;;;;;;5075325;28;20427;-69
2021/08/29 12:23:05;;;;;;;11.88;3.42;;;19.80;78.40;;;;;;5075107;28;20110;-69
2021/08/29 12:25:31;;;;;;;10.70;2.65;;;19.80;78.30;;;;;;5074900;28;20056;-71
2021/08/29 12:28:13;;;;;;;11.63;3.17;;;19.80;78.40;;;;;;5074538;28;20127;-69
2021/08/29 12:30:40;;;;;;;12.02;3.80;;;19.80;78.20;;;;;;5040589;28;20102;-70
2021/08/29 12:33:15;;;;;;;10.95;3.40;;;19.80;78.30;;;;;;5085888;28;20063;-69
2021/08/29 12:35:43;;;;;;;12.38;3.80;;;19.80;78.20;;;;;;5074823;28;20052;-70
2021/08/29 12:38:28;;;;;;;12.40;2.95;;;19.80;78.20;;;;;;5074446;28;20436;-70
2021/08/29 12:40:55;;;;;;;9.82;2.90;;;19.80;78.00;;;;;;5074924;28;20051;-69
2021/08/29 12:43:21;;;;;;;6.35;2.90;;;19.80;78.10;;;;;;5075974;28;20079;-70
2021/08/29 12:45:48;;;;;;;8.43;2.53;;;19.80;78.10;;;;;;5061028;28;20359;-70
2021/08/29 12:48:14;;;;;;;6.63;2.53;;;19.80;78.10;;;;;;5078686;28;20123;-69